sensor_id;sensor_type;location;lat;lon;timestamp;temperature;humidity
6307;DHT22;3186;54.062;9.962;2023-06-22T00:00:58;21.50;32.30
6307;DHT22;3186;54.062;9.962;2023-06-22T00:03:25;21.50;32.90
6307;DHT22;3186;54.062;9.962;2023-06-22T00:05:51;21.40;31.80
6307;DHT22;3186;54.062;9.962;2023-06-22T00:08:18;21.40;33.30
6307;DHT22;3186;54.062;9.962;2023-06-22T00:10:45;21.30;32.40
6307;DHT22;3186;54.062;9.962;2023-06-22T00:13:12;21.20;32.10
6307;DHT22;3186;54.062;9.962;2023-06-22T00:15:40;21.20;34.30
6307;DHT22;3186;54.062;9.962;2023-06-22T00:18:06;21.20;35.90
6307;DHT22;3186;54.062;9.962;2023-06-22T00:20:32;21.20;36.20
6307;DHT22;3186;54.062;9.962;2023-06-22T00:23:00;21.10;35.80
6307;DHT22;3186;54.062;9.962;2023-06-22T00:25:26;21.10;36.60
6307;DHT22;3186;54.062;9.962;2023-06-22T00:27:52;21.10;35.80
6307;DHT22;3186;54.062;9.962;2023-06-22T00:30:21;21.00;37.50
6307;DHT22;3186;54.062;9.962;2023-06-22T00:32:46;21.00;37.50
6307;DHT22;3186;54.062;9.962;2023-06-22T00:35:13;20.90;38.00
6307;DHT22;3186;54.062;9.962;2023-06-22T00:37:39;20.90;38.20
6307;DHT22;3186;54.062;9.962;2023-06-22T00:40:09;20.90;39.80
6307;DHT22;3186;54.062;9.962;2023-06-22T00:42:37;20.80;38.50
6307;DHT22;3186;54.062;9.962;2023-06-22T00:45:05;20.70;37.20
6307;DHT22;3186;54.062;9.962;2023-06-22T00:47:35;20.70;38.60
6307;DHT22;3186;54.062;9.962;2023-06-22T00:50:05;20.60;38.70
6307;DHT22;3186;54.062;9.962;2023-06-22T00:52:32;20.60;38.80
6307;DHT22;3186;54.062;9.962;2023-06-22T00:55:02;20.60;39.80
6307;DHT22;3186;54.062;9.962;2023-06-22T00:57:28;20.60;41.80
6307;DHT22;3186;54.062;9.962;2023-06-22T00:59:55;20.50;40.90
6307;DHT22;3186;54.062;9.962;2023-06-22T01:02:21;20.40;40.20
6307;DHT22;3186;54.062;9.962;2023-06-22T01:04:47;20.50;41.30
6307;DHT22;3186;54.062;9.962;2023-06-22T01:10:08;20.40;42.60
6307;DHT22;3186;54.062;9.962;2023-06-22T01:12:44;20.30;43.50
6307;DHT22;3186;54.062;9.962;2023-06-22T01:15:16;20.30;44.00
6307;DHT22;3186;54.062;9.962;2023-06-22T01:17:45;20.30;44.40
6307;DHT22;3186;54.062;9.962;2023-06-22T01:20:14;20.30;45.40
6307;DHT22;3186;54.062;9.962;2023-06-22T01:25:48;20.20;45.80
6307;DHT22;3186;54.062;9.962;2023-06-22T01:28:41;20.20;47.30
6307;DHT22;3186;54.062;9.962;2023-06-22T01:31:11;20.10;47.80
6307;DHT22;3186;54.062;9.962;2023-06-22T01:33:41;20.10;46.20
6307;DHT22;3186;54.062;9.962;2023-06-22T01:36:09;20.10;48.20
6307;DHT22;3186;54.062;9.962;2023-06-22T01:38:36;20.00;48.00
6307;DHT22;3186;54.062;9.962;2023-06-22T01:41:03;20.00;49.80
6307;DHT22;3186;54.062;9.962;2023-06-22T01:43:29;20.00;49.80
6307;DHT22;3186;54.062;9.962;2023-06-22T01:45:56;20.00;49.90
6307;DHT22;3186;54.062;9.962;2023-06-22T01:48:23;20.00;50.70
6307;DHT22;3186;54.062;9.962;2023-06-22T01:50:49;20.00;50.90
6307;DHT22;3186;54.062;9.962;2023-06-22T01:55:44;19.90;51.80
6307;DHT22;3186;54.062;9.962;2023-06-22T01:58:10;19.90;51.90
6307;DHT22;3186;54.062;9.962;2023-06-22T02:00:41;19.80;51.40
6307;DHT22;3186;54.062;9.962;2023-06-22T02:03:14;19.80;52.00
6307;DHT22;3186;54.062;9.962;2023-06-22T02:05:58;19.70;51.40
6307;DHT22;3186;54.062;9.962;2023-06-22T02:08:35;19.70;53.00
6307;DHT22;3186;54.062;9.962;2023-06-22T02:11:02;19.70;53.70
6307;DHT22;3186;54.062;9.962;2023-06-22T02:13:29;19.70;54.70
6307;DHT22;3186;54.062;9.962;2023-06-22T02:15:56;19.70;53.40
6307;DHT22;3186;54.062;9.962;2023-06-22T02:18:22;19.60;55.30
6307;DHT22;3186;54.062;9.962;2023-06-22T02:20:48;19.60;54.80
6307;DHT22;3186;54.062;9.962;2023-06-22T02:23:14;19.50;55.20
6307;DHT22;3186;54.062;9.962;2023-06-22T02:25:39;19.50;55.70
6307;DHT22;3186;54.062;9.962;2023-06-22T02:28:05;19.50;55.50
6307;DHT22;3186;54.062;9.962;2023-06-22T02:30:31;19.50;56.50
6307;DHT22;3186;54.062;9.962;2023-06-22T02:32:59;19.40;57.30
6307;DHT22;3186;54.062;9.962;2023-06-22T02:35:26;19.40;56.00
6307;DHT22;3186;54.062;9.962;2023-06-22T02:37:52;19.40;57.60
6307;DHT22;3186;54.062;9.962;2023-06-22T02:40:18;19.40;57.00
6307;DHT22;3186;54.062;9.962;2023-06-22T02:42:44;19.40;59.00
6307;DHT22;3186;54.062;9.962;2023-06-22T02:45:10;19.30;58.30
6307;DHT22;3186;54.062;9.962;2023-06-22T02:47:36;19.30;60.00
6307;DHT22;3186;54.062;9.962;2023-06-22T02:50:02;19.30;59.30
6307;DHT22;3186;54.062;9.962;2023-06-22T02:52:31;19.20;59.30
6307;DHT22;3186;54.062;9.962;2023-06-22T02:54:57;19.20;59.10
6307;DHT22;3186;54.062;9.962;2023-06-22T02:57:23;19.30;60.30
6307;DHT22;3186;54.062;9.962;2023-06-22T02:59:49;19.20;59.20
6307;DHT22;3186;54.062;9.962;2023-06-22T03:02:14;19.20;61.10
6307;DHT22;3186;54.062;9.962;2023-06-22T03:04:41;19.10;61.40
6307;DHT22;3186;54.062;9.962;2023-06-22T03:07:08;19.00;61.10
6307;DHT22;3186;54.062;9.962;2023-06-22T03:09:34;19.00;63.70
6307;DHT22;3186;54.062;9.962;2023-06-22T03:12:00;19.00;63.50
6307;DHT22;3186;54.062;9.962;2023-06-22T03:14:34;19.00;62.70
6307;DHT22;3186;54.062;9.962;2023-06-22T03:17:02;19.00;64.10
6307;DHT22;3186;54.062;9.962;2023-06-22T03:19:29;18.90;64.70
6307;DHT22;3186;54.062;9.962;2023-06-22T03:21:59;18.90;67.30
6307;DHT22;3186;54.062;9.962;2023-06-22T03:24:25;18.80;68.20
6307;DHT22;3186;54.062;9.962;2023-06-22T03:26:51;18.90;67.90
6307;DHT22;3186;54.062;9.962;2023-06-22T03:29:16;18.90;69.20
6307;DHT22;3186;54.062;9.962;2023-06-22T03:31:44;18.80;68.10
6307;DHT22;3186;54.062;9.962;2023-06-22T03:34:11;18.80;70.80
6307;DHT22;3186;54.062;9.962;2023-06-22T03:36:36;18.80;71.00
6307;DHT22;3186;54.062;9.962;2023-06-22T03:39:03;18.80;71.50
6307;DHT22;3186;54.062;9.962;2023-06-22T03:41:29;18.80;71.60
6307;DHT22;3186;54.062;9.962;2023-06-22T03:43:56;18.70;74.30
6307;DHT22;3186;54.062;9.962;2023-06-22T03:46:21;18.70;73.80
6307;DHT22;3186;54.062;9.962;2023-06-22T03:48:47;18.80;74.90
6307;DHT22;3186;54.062;9.962;2023-06-22T03:51:13;18.80;74.30
6307;DHT22;3186;54.062;9.962;2023-06-22T03:53:39;18.80;74.50
6307;DHT22;3186;54.062;9.962;2023-06-22T03:56:05;18.70;75.70
6307;DHT22;3186;54.062;9.962;2023-06-22T03:58:31;18.70;75.60
6307;DHT22;3186;54.062;9.962;2023-06-22T04:00:58;18.70;75.80
6307;DHT22;3186;54.062;9.962;2023-06-22T04:03:25;18.70;78.10
6307;DHT22;3186;54.062;9.962;2023-06-22T04:05:51;18.70;78.10
6307;DHT22;3186;54.062;9.962;2023-06-22T04:08:18;18.70;79.70
6307;DHT22;3186;54.062;9.962;2023-06-22T04:10:44;18.70;79.40
6307;DHT22;3186;54.062;9.962;2023-06-22T04:13:10;18.70;80.30
6307;DHT22;3186;54.062;9.962;2023-06-22T04:15:36;18.70;80.30
6307;DHT22;3186;54.062;9.962;2023-06-22T04:18:02;18.70;80.90
6307;DHT22;3186;54.062;9.962;2023-06-22T04:20:28;18.60;81.40
6307;DHT22;3186;54.062;9.962;2023-06-22T04:22:54;18.70;82.20
6307;DHT22;3186;54.062;9.962;2023-06-22T04:25:20;18.70;81.70
6307;DHT22;3186;54.062;9.962;2023-06-22T04:27:46;18.70;82.00
6307;DHT22;3186;54.062;9.962;2023-06-22T04:30:13;18.70;83.80
6307;DHT22;3186;54.062;9.962;2023-06-22T04:32:44;18.70;84.40
6307;DHT22;3186;54.062;9.962;2023-06-22T04:35:10;18.70;84.40
6307;DHT22;3186;54.062;9.962;2023-06-22T04:37:37;18.70;85.10
6307;DHT22;3186;54.062;9.962;2023-06-22T04:40:03;18.70;85.90
6307;DHT22;3186;54.062;9.962;2023-06-22T04:42:30;18.60;85.70
6307;DHT22;3186;54.062;9.962;2023-06-22T04:44:57;18.70;84.30
6307;DHT22;3186;54.062;9.962;2023-06-22T04:47:23;18.70;84.80
6307;DHT22;3186;54.062;9.962;2023-06-22T04:49:49;18.80;85.40
6307;DHT22;3186;54.062;9.962;2023-06-22T04:52:14;18.80;87.40
6307;DHT22;3186;54.062;9.962;2023-06-22T04:54:43;18.80;87.00
6307;DHT22;3186;54.062;9.962;2023-06-22T04:57:16;18.80;86.60
6307;DHT22;3186;54.062;9.962;2023-06-22T04:59:42;18.90;87.20
6307;DHT22;3186;54.062;9.962;2023-06-22T05:02:08;18.90;85.10
6307;DHT22;3186;54.062;9.962;2023-06-22T05:04:35;18.90;88.90
6307;DHT22;3186;54.062;9.962;2023-06-22T05:07:04;19.00;84.60
6307;DHT22;3186;54.062;9.962;2023-06-22T05:09:30;19.00;85.00
6307;DHT22;3186;54.062;9.962;2023-06-22T05:11:56;19.00;86.00
6307;DHT22;3186;54.062;9.962;2023-06-22T05:14:22;19.00;89.60
6307;DHT22;3186;54.062;9.962;2023-06-22T05:16:48;19.10;88.10
6307;DHT22;3186;54.062;9.962;2023-06-22T05:19:14;19.10;91.10
6307;DHT22;3186;54.062;9.962;2023-06-22T05:21:41;19.20;91.10
6307;DHT22;3186;54.062;9.962;2023-06-22T05:24:10;19.20;90.60
6307;DHT22;3186;54.062;9.962;2023-06-22T05:26:40;19.30;91.00
6307;DHT22;3186;54.062;9.962;2023-06-22T05:29:05;19.30;93.10
6307;DHT22;3186;54.062;9.962;2023-06-22T05:31:32;19.50;94.10
6307;DHT22;3186;54.062;9.962;2023-06-22T05:33:58;19.50;90.50
6307;DHT22;3186;54.062;9.962;2023-06-22T05:36:25;19.60;91.00
6307;DHT22;3186;54.062;9.962;2023-06-22T05:38:52;19.70;92.80
6307;DHT22;3186;54.062;9.962;2023-06-22T05:41:18;19.70;84.90
6307;DHT22;3186;54.062;9.962;2023-06-22T05:43:44;19.80;81.60
6307;DHT22;3186;54.062;9.962;2023-06-22T05:46:10;19.90;82.10
6307;DHT22;3186;54.062;9.962;2023-06-22T05:48:36;20.00;90.20
6307;DHT22;3186;54.062;9.962;2023-06-22T05:51:02;20.10;87.20
6307;DHT22;3186;54.062;9.962;2023-06-22T05:53:27;20.20;80.70
6307;DHT22;3186;54.062;9.962;2023-06-22T05:55:53;20.40;75.50
6307;DHT22;3186;54.062;9.962;2023-06-22T05:58:19;20.40;78.20
6307;DHT22;3186;54.062;9.962;2023-06-22T06:00:45;20.60;79.60
6307;DHT22;3186;54.062;9.962;2023-06-22T06:03:11;20.70;75.80
6307;DHT22;3186;54.062;9.962;2023-06-22T06:05:37;20.90;73.10
6307;DHT22;3186;54.062;9.962;2023-06-22T06:08:05;21.00;74.00
6307;DHT22;3186;54.062;9.962;2023-06-22T06:10:32;21.10;74.80
6307;DHT22;3186;54.062;9.962;2023-06-22T06:12:58;21.20;80.30
6307;DHT22;3186;54.062;9.962;2023-06-22T06:15:24;21.50;79.90
6307;DHT22;3186;54.062;9.962;2023-06-22T06:17:51;21.60;98.40
6307;DHT22;3186;54.062;9.962;2023-06-22T06:20:23;21.70;98.60
6307;DHT22;3186;54.062;9.962;2023-06-22T06:22:50;21.80;80.50
6307;DHT22;3186;54.062;9.962;2023-06-22T06:25:16;22.10;84.80
6307;DHT22;3186;54.062;9.962;2023-06-22T06:27:43;22.20;85.20
6307;DHT22;3186;54.062;9.962;2023-06-22T06:30:10;22.30;79.00
6307;DHT22;3186;54.062;9.962;2023-06-22T06:32:36;22.50;78.80
6307;DHT22;3186;54.062;9.962;2023-06-22T06:35:07;22.70;73.00
6307;DHT22;3186;54.062;9.962;2023-06-22T06:37:39;22.70;73.70
6307;DHT22;3186;54.062;9.962;2023-06-22T06:40:09;22.90;69.40
6307;DHT22;3186;54.062;9.962;2023-06-22T06:42:42;23.00;57.80
6307;DHT22;3186;54.062;9.962;2023-06-22T06:45:15;23.30;57.80
6307;DHT22;3186;54.062;9.962;2023-06-22T06:47:41;23.40;56.00
6307;DHT22;3186;54.062;9.962;2023-06-22T06:50:07;23.50;56.10
6307;DHT22;3186;54.062;9.962;2023-06-22T06:52:33;23.50;51.80
6307;DHT22;3186;54.062;9.962;2023-06-22T06:55:00;23.80;48.50
6307;DHT22;3186;54.062;9.962;2023-06-22T06:57:26;23.80;50.00
6307;DHT22;3186;54.062;9.962;2023-06-22T06:59:56;23.90;49.90
6307;DHT22;3186;54.062;9.962;2023-06-22T07:02:23;24.00;49.50
6307;DHT22;3186;54.062;9.962;2023-06-22T07:04:49;24.30;49.10
6307;DHT22;3186;54.062;9.962;2023-06-22T07:07:15;24.50;48.30
6307;DHT22;3186;54.062;9.962;2023-06-22T07:09:41;24.70;45.80
6307;DHT22;3186;54.062;9.962;2023-06-22T07:12:07;24.90;42.90
6307;DHT22;3186;54.062;9.962;2023-06-22T07:14:33;25.10;38.30
6307;DHT22;3186;54.062;9.962;2023-06-22T07:16:59;25.20;37.50
6307;DHT22;3186;54.062;9.962;2023-06-22T07:19:26;25.10;36.30
6307;DHT22;3186;54.062;9.962;2023-06-22T07:21:53;25.30;32.70
6307;DHT22;3186;54.062;9.962;2023-06-22T07:24:20;25.10;29.60
6307;DHT22;3186;54.062;9.962;2023-06-22T07:26:49;25.50;28.00
6307;DHT22;3186;54.062;9.962;2023-06-22T07:29:17;25.60;28.40
6307;DHT22;3186;54.062;9.962;2023-06-22T07:31:44;25.70;28.80
6307;DHT22;3186;54.062;9.962;2023-06-22T07:34:10;25.70;28.50
6307;DHT22;3186;54.062;9.962;2023-06-22T07:36:36;25.80;27.20
6307;DHT22;3186;54.062;9.962;2023-06-22T07:39:05;26.00;30.70
6307;DHT22;3186;54.062;9.962;2023-06-22T07:41:31;26.10;27.20
6307;DHT22;3186;54.062;9.962;2023-06-22T07:43:57;26.60;27.00
6307;DHT22;3186;54.062;9.962;2023-06-22T07:46:23;26.40;22.60
6307;DHT22;3186;54.062;9.962;2023-06-22T07:48:49;26.50;25.20
6307;DHT22;3186;54.062;9.962;2023-06-22T07:51:15;26.80;27.10
6307;DHT22;3186;54.062;9.962;2023-06-22T07:53:41;26.80;22.00
6307;DHT22;3186;54.062;9.962;2023-06-22T07:56:10;27.00;27.30
6307;DHT22;3186;54.062;9.962;2023-06-22T07:58:36;27.20;20.50
6307;DHT22;3186;54.062;9.962;2023-06-22T08:01:02;27.50;23.90
6307;DHT22;3186;54.062;9.962;2023-06-22T08:03:29;27.50;22.70
6307;DHT22;3186;54.062;9.962;2023-06-22T08:05:55;27.90;23.00
6307;DHT22;3186;54.062;9.962;2023-06-22T08:08:21;28.10;20.10
6307;DHT22;3186;54.062;9.962;2023-06-22T08:10:47;28.20;17.40
6307;DHT22;3186;54.062;9.962;2023-06-22T08:13:12;27.90;19.50
6307;DHT22;3186;54.062;9.962;2023-06-22T08:15:38;27.90;20.30
6307;DHT22;3186;54.062;9.962;2023-06-22T08:18:04;28.10;19.70
6307;DHT22;3186;54.062;9.962;2023-06-22T08:20:30;28.10;18.70
6307;DHT22;3186;54.062;9.962;2023-06-22T08:22:57;28.50;17.60
6307;DHT22;3186;54.062;9.962;2023-06-22T08:27:51;28.60;17.60
6307;DHT22;3186;54.062;9.962;2023-06-22T08:30:17;28.60;17.60
6307;DHT22;3186;54.062;9.962;2023-06-22T08:32:44;28.80;15.00
6307;DHT22;3186;54.062;9.962;2023-06-22T08:35:10;28.80;14.00
6307;DHT22;3186;54.062;9.962;2023-06-22T08:37:36;28.90;3.10
6307;DHT22;3186;54.062;9.962;2023-06-22T08:40:06;29.00;9.70
6307;DHT22;3186;54.062;9.962;2023-06-22T08:42:36;29.10;10.00
6307;DHT22;3186;54.062;9.962;2023-06-22T08:45:02;29.40;3.20
6307;DHT22;3186;54.062;9.962;2023-06-22T08:47:28;29.50;4.10
6307;DHT22;3186;54.062;9.962;2023-06-22T08:49:54;29.70;9.40
6307;DHT22;3186;54.062;9.962;2023-06-22T08:52:21;29.90;6.00
6307;DHT22;3186;54.062;9.962;2023-06-22T08:54:48;29.90;5.20
6307;DHT22;3186;54.062;9.962;2023-06-22T08:57:15;29.90;8.20
6307;DHT22;3186;54.062;9.962;2023-06-22T08:59:42;29.90;9.10
6307;DHT22;3186;54.062;9.962;2023-06-22T09:02:08;29.80;5.80
6307;DHT22;3186;54.062;9.962;2023-06-22T09:04:37;30.10;10.60
6307;DHT22;3186;54.062;9.962;2023-06-22T09:07:04;30.10;4.50
6307;DHT22;3186;54.062;9.962;2023-06-22T09:09:30;30.00;5.80
6307;DHT22;3186;54.062;9.962;2023-06-22T09:11:56;30.00;6.50
6307;DHT22;3186;54.062;9.962;2023-06-22T09:14:22;30.00;7.10
6307;DHT22;3186;54.062;9.962;2023-06-22T09:16:47;30.20;1.00
6307;DHT22;3186;54.062;9.962;2023-06-22T09:19:13;30.00;4.20
6307;DHT22;3186;54.062;9.962;2023-06-22T09:21:39;30.70;9.40
6307;DHT22;3186;54.062;9.962;2023-06-22T09:24:05;31.10;7.40
6307;DHT22;3186;54.062;9.962;2023-06-22T09:26:32;31.20;6.60
6307;DHT22;3186;54.062;9.962;2023-06-22T09:28:57;31.00;6.90
6307;DHT22;3186;54.062;9.962;2023-06-22T09:31:23;31.40;1.00
6307;DHT22;3186;54.062;9.962;2023-06-22T09:33:55;30.80;1.00
6307;DHT22;3186;54.062;9.962;2023-06-22T09:36:21;30.50;6.20
6307;DHT22;3186;54.062;9.962;2023-06-22T09:38:48;31.00;8.90
6307;DHT22;3186;54.062;9.962;2023-06-22T09:41:14;31.40;7.50
6307;DHT22;3186;54.062;9.962;2023-06-22T09:43:41;31.30;4.50
6307;DHT22;3186;54.062;9.962;2023-06-22T09:46:07;31.30;5.50
6307;DHT22;3186;54.062;9.962;2023-06-22T09:48:34;31.30;3.10
6307;DHT22;3186;54.062;9.962;2023-06-22T09:51:00;31.30;2.20
6307;DHT22;3186;54.062;9.962;2023-06-22T09:53:26;31.50;2.50
6307;DHT22;3186;54.062;9.962;2023-06-22T09:55:52;31.70;5.00
6307;DHT22;3186;54.062;9.962;2023-06-22T09:58:18;32.40;3.40
6307;DHT22;3186;54.062;9.962;2023-06-22T10:00:43;32.20;3.50
6307;DHT22;3186;54.062;9.962;2023-06-22T10:03:09;32.70;2.40
6307;DHT22;3186;54.062;9.962;2023-06-22T10:05:35;32.80;2.10
6307;DHT22;3186;54.062;9.962;2023-06-22T10:08:01;32.60;3.90
6307;DHT22;3186;54.062;9.962;2023-06-22T10:10:27;32.70;1.00
6307;DHT22;3186;54.062;9.962;2023-06-22T10:12:57;32.90;3.50
6307;DHT22;3186;54.062;9.962;2023-06-22T10:15:23;33.40;1.20
6307;DHT22;3186;54.062;9.962;2023-06-22T10:17:49;33.30;2.90
6307;DHT22;3186;54.062;9.962;2023-06-22T10:20:15;33.20;2.30
6307;DHT22;3186;54.062;9.962;2023-06-22T10:22:44;33.40;2.40
6307;DHT22;3186;54.062;9.962;2023-06-22T10:25:11;32.80;1.00
6307;DHT22;3186;54.062;9.962;2023-06-22T10:27:37;32.80;1.00
6307;DHT22;3186;54.062;9.962;2023-06-22T10:30:08;33.20;1.00
6307;DHT22;3186;54.062;9.962;2023-06-22T10:32:34;33.60;1.00
6307;DHT22;3186;54.062;9.962;2023-06-22T10:35:00;33.80;1.00
6307;DHT22;3186;54.062;9.962;2023-06-22T10:37:26;33.80;1.00
6307;DHT22;3186;54.062;9.962;2023-06-22T10:39:51;33.50;1.00
6307;DHT22;3186;54.062;9.962;2023-06-22T10:42:17;33.70;1.00
6307;DHT22;3186;54.062;9.962;2023-06-22T10:44:43;33.60;1.00
6307;DHT22;3186;54.062;9.962;2023-06-22T10:47:10;32.90;1.00
6307;DHT22;3186;54.062;9.962;2023-06-22T10:49:38;33.40;1.00
6307;DHT22;3186;54.062;9.962;2023-06-22T10:52:07;33.90;1.00
6307;DHT22;3186;54.062;9.962;2023-06-22T10:54:34;33.70;1.00
6307;DHT22;3186;54.062;9.962;2023-06-22T10:57:01;34.10;1.00
6307;DHT22;3186;54.062;9.962;2023-06-22T10:59:27;34.10;1.00
6307;DHT22;3186;54.062;9.962;2023-06-22T11:01:55;34.20;1.00
6307;DHT22;3186;54.062;9.962;2023-06-22T11:04:21;34.40;1.00
6307;DHT22;3186;54.062;9.962;2023-06-22T11:06:48;34.50;1.00
6307;DHT22;3186;54.062;9.962;2023-06-22T11:09:14;34.40;1.00
6307;DHT22;3186;54.062;9.962;2023-06-22T11:11:44;34.30;1.00
6307;DHT22;3186;54.062;9.962;2023-06-22T11:14:10;34.70;1.00
6307;DHT22;3186;54.062;9.962;2023-06-22T11:16:36;35.20;1.00
6307;DHT22;3186;54.062;9.962;2023-06-22T11:19:02;35.40;1.00
6307;DHT22;3186;54.062;9.962;2023-06-22T11:21:28;35.60;1.00
6307;DHT22;3186;54.062;9.962;2023-06-22T11:23:54;35.70;1.00
6307;DHT22;3186;54.062;9.962;2023-06-22T11:26:20;35.90;1.00
6307;DHT22;3186;54.062;9.962;2023-06-22T11:28:47;36.10;1.00
6307;DHT22;3186;54.062;9.962;2023-06-22T11:31:12;35.90;1.00
6307;DHT22;3186;54.062;9.962;2023-06-22T11:33:38;35.90;1.00
6307;DHT22;3186;54.062;9.962;2023-06-22T11:36:05;36.20;1.00
6307;DHT22;3186;54.062;9.962;2023-06-22T11:38:31;36.30;1.00
6307;DHT22;3186;54.062;9.962;2023-06-22T11:41:01;36.70;1.00
6307;DHT22;3186;54.062;9.962;2023-06-22T11:43:26;36.70;1.00
6307;DHT22;3186;54.062;9.962;2023-06-22T11:45:52;36.70;1.00
6307;DHT22;3186;54.062;9.962;2023-06-22T11:48:18;36.60;1.00
6307;DHT22;3186;54.062;9.962;2023-06-22T11:50:44;36.80;1.00
6307;DHT22;3186;54.062;9.962;2023-06-22T11:53:09;37.00;1.00
6307;DHT22;3186;54.062;9.962;2023-06-22T11:55:35;37.10;1.00
6307;DHT22;3186;54.062;9.962;2023-06-22T11:58:01;37.20;1.00
6307;DHT22;3186;54.062;9.962;2023-06-22T12:00:30;37.30;1.00
6307;DHT22;3186;54.062;9.962;2023-06-22T12:02:55;37.20;1.00
6307;DHT22;3186;54.062;9.962;2023-06-22T12:05:22;36.70;1.00
6307;DHT22;3186;54.062;9.962;2023-06-22T12:07:48;36.70;1.00
6307;DHT22;3186;54.062;9.962;2023-06-22T12:10:15;36.40;1.00
6307;DHT22;3186;54.062;9.962;2023-06-22T12:12:41;36.00;1.00
6307;DHT22;3186;54.062;9.962;2023-06-22T12:17:36;35.40;1.00
6307;DHT22;3186;54.062;9.962;2023-06-22T12:20:02;35.60;1.00
6307;DHT22;3186;54.062;9.962;2023-06-22T12:22:32;35.90;1.00
6307;DHT22;3186;54.062;9.962;2023-06-22T12:24:57;36.00;1.00
6307;DHT22;3186;54.062;9.962;2023-06-22T12:27:24;36.00;1.00
6307;DHT22;3186;54.062;9.962;2023-06-22T12:29:50;35.80;1.00
6307;DHT22;3186;54.062;9.962;2023-06-22T12:32:16;35.90;1.00
6307;DHT22;3186;54.062;9.962;2023-06-22T12:34:43;36.10;1.00
6307;DHT22;3186;54.062;9.962;2023-06-22T12:37:09;36.10;1.00
6307;DHT22;3186;54.062;9.962;2023-06-22T12:39:35;35.80;1.00
6307;DHT22;3186;54.062;9.962;2023-06-22T12:42:01;35.70;1.00
6307;DHT22;3186;54.062;9.962;2023-06-22T12:44:27;35.50;1.00
6307;DHT22;3186;54.062;9.962;2023-06-22T12:46:53;35.90;1.00
6307;DHT22;3186;54.062;9.962;2023-06-22T12:49:19;35.60;1.00
6307;DHT22;3186;54.062;9.962;2023-06-22T12:51:45;35.90;1.00
6307;DHT22;3186;54.062;9.962;2023-06-22T12:54:11;36.20;1.00
6307;DHT22;3186;54.062;9.962;2023-06-22T12:56:38;35.80;1.00
6307;DHT22;3186;54.062;9.962;2023-06-22T12:59:04;36.00;1.00
6307;DHT22;3186;54.062;9.962;2023-06-22T13:01:31;35.40;1.00
6307;DHT22;3186;54.062;9.962;2023-06-22T13:03:58;34.90;1.00
6307;DHT22;3186;54.062;9.962;2023-06-22T13:06:25;35.10;1.00
6307;DHT22;3186;54.062;9.962;2023-06-22T13:08:51;35.30;1.00
6307;DHT22;3186;54.062;9.962;2023-06-22T13:11:17;35.90;1.00
6307;DHT22;3186;54.062;9.962;2023-06-22T13:13:44;36.00;1.00
6307;DHT22;3186;54.062;9.962;2023-06-22T13:16:11;36.30;1.00
6307;DHT22;3186;54.062;9.962;2023-06-22T13:18:37;35.90;1.00
6307;DHT22;3186;54.062;9.962;2023-06-22T13:21:03;35.80;1.00
6307;DHT22;3186;54.062;9.962;2023-06-22T13:23:29;35.80;1.00
6307;DHT22;3186;54.062;9.962;2023-06-22T13:25:55;35.80;1.00
6307;DHT22;3186;54.062;9.962;2023-06-22T13:28:24;35.70;1.00
6307;DHT22;3186;54.062;9.962;2023-06-22T13:30:50;35.60;1.00
6307;DHT22;3186;54.062;9.962;2023-06-22T13:33:16;35.20;1.00
6307;DHT22;3186;54.062;9.962;2023-06-22T13:35:42;35.30;1.00
6307;DHT22;3186;54.062;9.962;2023-06-22T13:38:11;35.20;1.00
6307;DHT22;3186;54.062;9.962;2023-06-22T13:40:39;35.20;1.00
6307;DHT22;3186;54.062;9.962;2023-06-22T13:43:11;35.10;1.00
6307;DHT22;3186;54.062;9.962;2023-06-22T13:45:40;35.10;1.00
6307;DHT22;3186;54.062;9.962;2023-06-22T13:48:06;35.10;1.00
6307;DHT22;3186;54.062;9.962;2023-06-22T13:50:32;34.90;1.00
6307;DHT22;3186;54.062;9.962;2023-06-22T13:52:57;34.90;1.00
6307;DHT22;3186;54.062;9.962;2023-06-22T13:55:23;35.10;1.00
6307;DHT22;3186;54.062;9.962;2023-06-22T13:57:49;35.00;1.00
6307;DHT22;3186;54.062;9.962;2023-06-22T14:00:17;34.80;1.00
6307;DHT22;3186;54.062;9.962;2023-06-22T14:02:43;34.50;1.00
6307;DHT22;3186;54.062;9.962;2023-06-22T14:05:09;34.60;1.00
6307;DHT22;3186;54.062;9.962;2023-06-22T14:07:35;34.50;1.00
6307;DHT22;3186;54.062;9.962;2023-06-22T14:10:01;34.20;1.00
6307;DHT22;3186;54.062;9.962;2023-06-22T14:12:27;34.30;1.00
6307;DHT22;3186;54.062;9.962;2023-06-22T14:14:52;34.40;1.00
6307;DHT22;3186;54.062;9.962;2023-06-22T14:17:18;34.40;1.00
6307;DHT22;3186;54.062;9.962;2023-06-22T14:19:49;34.20;1.00
6307;DHT22;3186;54.062;9.962;2023-06-22T14:22:18;34.20;1.00
6307;DHT22;3186;54.062;9.962;2023-06-22T14:24:43;34.40;1.00
6307;DHT22;3186;54.062;9.962;2023-06-22T14:27:09;34.60;1.00
6307;DHT22;3186;54.062;9.962;2023-06-22T14:29:35;34.50;1.00
6307;DHT22;3186;54.062;9.962;2023-06-22T14:32:01;34.40;1.00
6307;DHT22;3186;54.062;9.962;2023-06-22T14:34:27;34.20;1.00
6307;DHT22;3186;54.062;9.962;2023-06-22T14:36:53;34.10;1.00
6307;DHT22;3186;54.062;9.962;2023-06-22T14:39:19;34.30;1.00
6307;DHT22;3186;54.062;9.962;2023-06-22T14:41:46;34.00;1.00
6307;DHT22;3186;54.062;9.962;2023-06-22T14:44:12;33.80;1.00
6307;DHT22;3186;54.062;9.962;2023-06-22T14:46:38;33.90;1.00
6307;DHT22;3186;54.062;9.962;2023-06-22T14:49:03;33.90;1.00
6307;DHT22;3186;54.062;9.962;2023-06-22T14:51:29;33.60;1.00
6307;DHT22;3186;54.062;9.962;2023-06-22T14:53:55;33.50;1.00
6307;DHT22;3186;54.062;9.962;2023-06-22T14:56:21;33.30;1.00
6307;DHT22;3186;54.062;9.962;2023-06-22T14:58:47;33.20;1.00
6307;DHT22;3186;54.062;9.962;2023-06-22T15:01:13;33.20;1.00
6307;DHT22;3186;54.062;9.962;2023-06-22T15:03:39;33.20;1.00
6307;DHT22;3186;54.062;9.962;2023-06-22T15:06:05;33.00;1.00
6307;DHT22;3186;54.062;9.962;2023-06-22T15:08:31;33.10;1.00
6307;DHT22;3186;54.062;9.962;2023-06-22T15:11:00;33.20;1.00
6307;DHT22;3186;54.062;9.962;2023-06-22T15:13:27;33.00;1.00
6307;DHT22;3186;54.062;9.962;2023-06-22T15:15:53;32.90;1.00
6307;DHT22;3186;54.062;9.962;2023-06-22T15:18:19;32.90;1.00
6307;DHT22;3186;54.062;9.962;2023-06-22T15:20:44;32.80;1.00
6307;DHT22;3186;54.062;9.962;2023-06-22T15:23:12;32.60;1.00
6307;DHT22;3186;54.062;9.962;2023-06-22T15:25:38;32.40;1.00
6307;DHT22;3186;54.062;9.962;2023-06-22T15:28:04;32.50;1.00
6307;DHT22;3186;54.062;9.962;2023-06-22T15:30:30;32.50;1.00
6307;DHT22;3186;54.062;9.962;2023-06-22T15:35:23;32.60;1.00
6307;DHT22;3186;54.062;9.962;2023-06-22T15:37:49;32.50;1.00
6307;DHT22;3186;54.062;9.962;2023-06-22T15:40:16;32.60;1.00
6307;DHT22;3186;54.062;9.962;2023-06-22T15:42:42;32.50;1.00
6307;DHT22;3186;54.062;9.962;2023-06-22T15:45:09;32.40;1.00
6307;DHT22;3186;54.062;9.962;2023-06-22T15:47:35;32.30;1.00
6307;DHT22;3186;54.062;9.962;2023-06-22T15:50:01;32.20;1.00
6307;DHT22;3186;54.062;9.962;2023-06-22T15:52:26;32.20;1.00
6307;DHT22;3186;54.062;9.962;2023-06-22T15:54:52;32.10;1.00
6307;DHT22;3186;54.062;9.962;2023-06-22T15:57:23;31.90;1.00
6307;DHT22;3186;54.062;9.962;2023-06-22T15:59:52;32.00;1.00
6307;DHT22;3186;54.062;9.962;2023-06-22T16:02:17;32.00;1.00
6307;DHT22;3186;54.062;9.962;2023-06-22T16:04:43;31.80;1.00
6307;DHT22;3186;54.062;9.962;2023-06-22T16:07:09;31.80;1.00
6307;DHT22;3186;54.062;9.962;2023-06-22T16:09:40;31.80;1.00
6307;DHT22;3186;54.062;9.962;2023-06-22T16:12:06;31.30;1.00
6307;DHT22;3186;54.062;9.962;2023-06-22T16:14:34;31.50;1.00
6307;DHT22;3186;54.062;9.962;2023-06-22T16:17:01;31.40;1.00
6307;DHT22;3186;54.062;9.962;2023-06-22T16:19:27;31.50;1.00
6307;DHT22;3186;54.062;9.962;2023-06-22T16:21:53;31.40;1.00